sensor_id;sensor_type;location;lat;lon;timestamp;pressure;altitude;pressure_sealevel;temperature;humidity
43814;BME280;29669;55.706;37.656;2024-02-26T00:01:33;101096.34;;;0.76;nan
43814;BME280;29669;55.706;37.656;2024-02-26T00:04:01;101093.81;;;0.76;nan
43814;BME280;29669;55.706;37.656;2024-02-26T00:06:30;101093.88;;;0.74;nan
43814;BME280;29669;55.706;37.656;2024-02-26T00:08:59;101099.06;;;0.73;nan
43814;BME280;29669;55.706;37.656;2024-02-26T00:11:26;101092.44;;;0.69;nan
43814;BME280;29669;55.706;37.656;2024-02-26T00:13:54;101097.69;;;0.66;nan
43814;BME280;29669;55.706;37.656;2024-02-26T00:16:22;101099.47;;;0.64;nan
43814;BME280;29669;55.706;37.656;2024-02-26T00:18:49;101092.06;;;0.58;nan
43814;BME280;29669;55.706;37.656;2024-02-26T00:21:17;101086.97;;;0.58;nan
43814;BME280;29669;55.706;37.656;2024-02-26T00:23:45;101087.84;;;0.57;nan
43814;BME280;29669;55.706;37.656;2024-02-26T00:26:13;101087.16;;;0.53;nan
43814;BME280;29669;55.706;37.656;2024-02-26T00:28:42;101083.84;;;0.51;nan
43814;BME280;29669;55.706;37.656;2024-02-26T00:31:10;101091.31;;;0.56;nan
43814;BME280;29669;55.706;37.656;2024-02-26T00:33:39;101082.75;;;0.57;nan
43814;BME280;29669;55.706;37.656;2024-02-26T00:36:07;101082.75;;;0.57;nan
43814;BME280;29669;55.706;37.656;2024-02-26T00:38:35;101091.31;;;0.56;nan
43814;BME280;29669;55.706;37.656;2024-02-26T00:41:03;101088.75;;;0.56;nan
43814;BME280;29669;55.706;37.656;2024-02-26T00:43:31;101075.06;;;0.57;nan
43814;BME280;29669;55.706;37.656;2024-02-26T00:45:59;101081.94;;;0.56;nan
43814;BME280;29669;55.706;37.656;2024-02-26T00:48:26;101074.34;;;0.55;nan
43814;BME280;29669;55.706;37.656;2024-02-26T00:50:54;101079.56;;;0.52;nan
43814;BME280;29669;55.706;37.656;2024-02-26T00:53:22;101074.59;;;0.49;nan
43814;BME280;29669;55.706;37.656;2024-02-26T00:55:50;101077.28;;;0.46;nan
43814;BME280;29669;55.706;37.656;2024-02-26T00:58:17;101084.19;;;0.44;nan
43814;BME280;29669;55.706;37.656;2024-02-26T01:00:46;101082.69;;;0.40;nan
43814;BME280;29669;55.706;37.656;2024-02-26T01:03:14;101072.66;;;0.35;nan
43814;BME280;29669;55.706;37.656;2024-02-26T01:05:42;101075.34;;;0.32;nan
43814;BME280;29669;55.706;37.656;2024-02-26T01:08:10;101077.19;;;0.29;nan
43814;BME280;29669;55.706;37.656;2024-02-26T01:10:38;101072.06;;;0.29;nan
43814;BME280;29669;55.706;37.656;2024-02-26T01:13:05;101074.78;;;0.26;nan
43814;BME280;29669;55.706;37.656;2024-02-26T01:15:35;101079.97;;;0.24;nan
43814;BME280;29669;55.706;37.656;2024-02-26T01:18:02;101084.22;;;0.24;nan
43814;BME280;29669;55.706;37.656;2024-02-26T01:20:30;101081.53;;;0.27;nan
43814;BME280;29669;55.706;37.656;2024-02-26T01:22:58;101078.84;;;0.30;nan
43814;BME280;29669;55.706;37.656;2024-02-26T01:25:26;101072.84;;;0.31;nan
43814;BME280;29669;55.706;37.656;2024-02-26T01:27:53;101077.91;;;0.32;nan
43814;BME280;29669;55.706;37.656;2024-02-26T01:30:21;101072.66;;;0.35;nan
43814;BME280;29669;55.706;37.656;2024-02-26T01:32:49;101078.38;;;0.40;nan
43814;BME280;29669;55.706;37.656;2024-02-26T01:35:16;101079.22;;;0.41;nan
43814;BME280;29669;55.706;37.656;2024-02-26T01:37:44;101073.97;;;0.44;nan
43814;BME280;29669;55.706;37.656;2024-02-26T01:40:12;101071.28;;;0.47;nan
43814;BME280;29669;55.706;37.656;2024-02-26T01:42:45;101071.97;;;0.50;nan
43814;BME280;29669;55.706;37.656;2024-02-26T01:45:16;101067.72;;;0.51;nan
43814;BME280;29669;55.706;37.656;2024-02-26T01:47:50;101070.31;;;0.49;nan
43814;BME280;29669;55.706;37.656;2024-02-26T01:50:19;101067.03;;;0.47;nan
43814;BME280;29669;55.706;37.656;2024-02-26T01:52:48;101072.88;;;0.49;nan
43814;BME280;29669;55.706;37.656;2024-02-26T01:55:20;101061.69;;;0.52;nan
43814;BME280;29669;55.706;37.656;2024-02-26T01:57:50;101065.16;;;0.51;nan
43814;BME280;29669;55.706;37.656;2024-02-26T02:00:20;101059.28;;;0.49;nan
43814;BME280;29669;55.706;37.656;2024-02-26T02:02:49;101062.72;;;0.48;nan
43814;BME280;29669;55.706;37.656;2024-02-26T02:05:20;101060.25;;;0.46;nan
43814;BME280;29669;55.706;37.656;2024-02-26T02:07:48;101066.31;;;0.44;nan
43814;BME280;29669;55.706;37.656;2024-02-26T02:10:17;101058.63;;;0.44;nan
43814;BME280;29669;55.706;37.656;2024-02-26T02:12:53;101057.88;;;0.42;nan
43814;BME280;29669;55.706;37.656;2024-02-26T02:15:21;101057.00;;;0.43;nan
43814;BME280;29669;55.706;37.656;2024-02-26T02:17:49;101057.06;;;0.41;nan
43814;BME280;29669;55.706;37.656;2024-02-26T02:20:18;101052.91;;;0.39;nan
43814;BME280;29669;55.706;37.656;2024-02-26T02:22:46;101053.06;;;0.36;nan
43814;BME280;29669;55.706;37.656;2024-02-26T02:25:14;101057.41;;;0.34;nan
43814;BME280;29669;55.706;37.656;2024-02-26T02:27:42;101060.91;;;0.31;nan
43814;BME280;29669;55.706;37.656;2024-02-26T02:30:11;101056.91;;;0.26;nan
43814;BME280;29669;55.706;37.656;2024-02-26T02:32:40;101047.84;;;0.19;nan
43814;BME280;29669;55.706;37.656;2024-02-26T02:35:11;101051.44;;;0.15;nan
43814;BME280;29669;55.706;37.656;2024-02-26T02:37:38;101045.56;;;0.13;nan
43814;BME280;29669;55.706;37.656;2024-02-26T02:40:06;101052.28;;;0.15;nan
43814;BME280;29669;55.706;37.656;2024-02-26T02:42:34;101049.72;;;0.15;nan
43814;BME280;29669;55.706;37.656;2024-02-26T02:45:02;101051.28;;;0.18;nan
43814;BME280;29669;55.706;37.656;2024-02-26T02:47:30;101059.63;;;0.21;nan
43814;BME280;29669;55.706;37.656;2024-02-26T02:49:58;101051.03;;;0.24;nan
43814;BME280;29669;55.706;37.656;2024-02-26T02:52:26;101048.47;;;0.24;nan
43814;BME280;29669;55.706;37.656;2024-02-26T02:54:53;101055.19;;;0.26;nan
43814;BME280;29669;55.706;37.656;2024-02-26T02:57:21;101043.22;;;0.27;nan
43814;BME280;29669;55.706;37.656;2024-02-26T02:59:49;101049.84;;;0.31;nan
43814;BME280;29669;55.706;37.656;2024-02-26T03:02:16;101056.56;;;0.33;nan
43814;BME280;29669;55.706;37.656;2024-02-26T03:04:44;101049.06;;;0.30;nan
43814;BME280;29669;55.706;37.656;2024-02-26T03:07:12;101050.09;;;0.26;nan
43814;BME280;29669;55.706;37.656;2024-02-26T03:09:40;101039.91;;;0.25;nan
43814;BME280;29669;55.706;37.656;2024-02-26T03:12:08;101037.44;;;0.23;nan
43814;BME280;29669;55.706;37.656;2024-02-26T03:14:36;101046.84;;;0.23;nan
43814;BME280;29669;55.706;37.656;2024-02-26T03:17:04;101054.59;;;0.20;nan
43814;BME280;29669;55.706;37.656;2024-02-26T03:19:31;101047.09;;;0.17;nan
43814;BME280;29669;55.706;37.656;2024-02-26T03:21:59;101044.66;;;0.14;nan
43814;BME280;29669;55.706;37.656;2024-02-26T03:24:27;101048.19;;;0.11;nan
43814;BME280;29669;55.706;37.656;2024-02-26T03:26:55;101046.44;;;0.12;nan
43814;BME280;29669;55.706;37.656;2024-02-26T03:29:22;101045.69;;;0.10;nan
43814;BME280;29669;55.706;37.656;2024-02-26T03:31:50;101039.19;;;0.03;nan
43814;BME280;29669;55.706;37.656;2024-02-26T03:34:18;101038.56;;;-0.03;nan
43814;BME280;29669;55.706;37.656;2024-02-26T03:36:47;101034.16;;;0.01;nan
43814;BME280;29669;55.706;37.656;2024-02-26T03:39:15;101036.72;;;0.01;nan
43814;BME280;29669;55.706;37.656;2024-02-26T03:41:43;101040.97;;;0.00;nan
43814;BME280;29669;55.706;37.656;2024-02-26T03:44:10;101036.84;;;-0.02;nan
43814;BME280;29669;55.706;37.656;2024-02-26T03:46:38;101034.34;;;-0.04;nan
43814;BME280;29669;55.706;37.656;2024-02-26T03:49:05;101041.22;;;-0.06;nan
43814;BME280;29669;55.706;37.656;2024-02-26T03:51:33;101043.84;;;-0.07;nan
43814;BME280;29669;55.706;37.656;2024-02-26T03:54:01;101032.81;;;-0.08;nan
43814;BME280;29669;55.706;37.656;2024-02-26T03:56:29;101032.06;;;-0.10;nan
43814;BME280;29669;55.706;37.656;2024-02-26T03:58:57;101044.81;;;-0.10;nan
43814;BME280;29669;55.706;37.656;2024-02-26T04:01:26;101038.88;;;-0.10;nan
43814;BME280;29669;55.706;37.656;2024-02-26T04:03:54;101044.00;;;-0.10;nan
43814;BME280;29669;55.706;37.656;2024-02-26T04:06:22;101042.31;;;-0.11;nan
43814;BME280;29669;55.706;37.656;2024-02-26T04:08:50;101043.16;;;-0.11;nan
43814;BME280;29669;55.706;37.656;2024-02-26T04:11:17;101039.91;;;-0.14;nan
43814;BME280;29669;55.706;37.656;2024-02-26T04:13:46;101045.09;;;-0.16;nan
43814;BME280;29669;55.706;37.656;2024-02-26T04:16:16;101037.44;;;-0.16;nan
43814;BME280;29669;55.706;37.656;2024-02-26T04:18:44;101041.69;;;-0.16;nan
43814;BME280;29669;55.706;37.656;2024-02-26T04:21:12;101045.34;;;-0.22;nan
43814;BME280;29669;55.706;37.656;2024-02-26T04:23:40;101040.31;;;-0.23;nan
43814;BME280;29669;55.706;37.656;2024-02-26T04:26:08;101053.84;;;-0.23;nan
43814;BME280;29669;55.706;37.656;2024-02-26T04:28:35;101052.22;;;-0.24;nan
43814;BME280;29669;55.706;37.656;2024-02-26T04:31:03;101045.56;;;-0.28;nan
43814;BME280;29669;55.706;37.656;2024-02-26T04:33:34;101050.63;;;-0.26;nan
43814;BME280;29669;55.706;37.656;2024-02-26T04:36:02;101048.75;;;-0.23;nan
43814;BME280;29669;55.706;37.656;2024-02-26T04:38:30;101052.03;;;-0.19;nan
43814;BME280;29669;55.706;37.656;2024-02-26T04:40:58;101048.50;;;-0.17;nan
43814;BME280;29669;55.706;37.656;2024-02-26T04:43:25;101044.31;;;-0.18;nan
43814;BME280;29669;55.706;37.656;2024-02-26T04:45:53;101050.28;;;-0.19;nan
43814;BME280;29669;55.706;37.656;2024-02-26T04:48:22;101051.19;;;-0.20;nan
43814;BME280;29669;55.706;37.656;2024-02-26T04:50:50;101047.81;;;-0.20;nan
43814;BME280;29669;55.706;37.656;2024-02-26T04:53:18;101052.97;;;-0.22;nan
43814;BME280;29669;55.706;37.656;2024-02-26T04:55:46;101049.50;;;-0.19;nan
43814;BME280;29669;55.706;37.656;2024-02-26T04:58:13;101036.66;;;-0.18;nan
43814;BME280;29669;55.706;37.656;2024-02-26T05:00:41;101046.97;;;-0.21;nan
43814;BME280;29669;55.706;37.656;2024-02-26T05:03:09;101044.25;;;-0.16;nan
43814;BME280;29669;55.706;37.656;2024-02-26T05:05:44;101034.94;;;-0.17;nan
43814;BME280;29669;55.706;37.656;2024-02-26T05:08:14;101036.53;;;-0.15;nan
43814;BME280;29669;55.706;37.656;2024-02-26T05:10:42;101032.31;;;-0.16;nan
43814;BME280;29669;55.706;37.656;2024-02-26T05:13:12;101043.41;;;-0.17;nan
43814;BME280;29669;55.706;37.656;2024-02-26T05:15:41;101041.50;;;-0.12;nan
43814;BME280;29669;55.706;37.656;2024-02-26T05:18:09;101040.69;;;-0.12;nan
43814;BME280;29669;55.706;37.656;2024-02-26T05:20:37;101033.09;;;-0.14;nan
43814;BME280;29669;55.706;37.656;2024-02-26T05:23:05;101041.38;;;-0.09;nan
43814;BME280;29669;55.706;37.656;2024-02-26T05:25:33;101045.44;;;-0.05;nan
43814;BME280;29669;55.706;37.656;2024-02-26T05:28:01;101038.69;;;-0.06;nan
43814;BME280;29669;55.706;37.656;2024-02-26T05:30:28;101050.50;;;-0.03;nan
43814;BME280;29669;55.706;37.656;2024-02-26T05:32:56;101040.97;;;0.00;nan
43814;BME280;29669;55.706;37.656;2024-02-26T05:35:25;101041.63;;;0.06;nan
43814;BME280;29669;55.706;37.656;2024-02-26T05:37:53;101039.78;;;0.09;nan
43814;BME280;29669;55.706;37.656;2024-02-26T05:40:21;101029.34;;;0.14;nan
43814;BME280;29669;55.706;37.656;2024-02-26T05:42:49;101031.63;;;0.20;nan
43814;BME280;29669;55.706;37.656;2024-02-26T05:45:17;101031.28;;;0.27;nan
43814;BME280;29669;55.706;37.656;2024-02-26T05:47:45;101032.91;;;0.30;nan
43814;BME280;29669;55.706;37.656;2024-02-26T05:50:13;101031.09;;;0.32;nan
43814;BME280;29669;55.706;37.656;2024-02-26T05:52:42;101032.47;;;0.39;nan
43814;BME280;29669;55.706;37.656;2024-02-26T05:55:10;101033.41;;;0.38;nan
43814;BME280;29669;55.706;37.656;2024-02-26T05:57:38;101037.59;;;0.39;nan
43814;BME280;29669;55.706;37.656;2024-02-26T06:00:06;101048.31;;;0.47;nan
43814;BME280;29669;55.706;37.656;2024-02-26T06:02:39;101040.38;;;0.53;nan
43814;BME280;29669;55.706;37.656;2024-02-26T06:05:07;101037.66;;;0.56;nan
43814;BME280;29669;55.706;37.656;2024-02-26T06:07:36;101034.69;;;0.65;nan
43814;BME280;29669;55.706;37.656;2024-02-26T06:10:05;101048.66;;;0.58;nan
43814;BME280;29669;55.706;37.656;2024-02-26T06:12:35;101050.03;;;0.65;nan
43814;BME280;29669;55.706;37.656;2024-02-26T06:15:03;101047.97;;;0.73;nan
43814;BME280;29669;55.706;37.656;2024-02-26T06:17:32;101040.63;;;0.84;nan
43814;BME280;29669;55.706;37.656;2024-02-26T06:20:00;101044.97;;;0.82;nan
43814;BME280;29669;55.706;37.656;2024-02-26T06:22:30;101049.81;;;0.69;nan
43814;BME280;29669;55.706;37.656;2024-02-26T06:24:58;101053.22;;;0.70;nan
43814;BME280;29669;55.706;37.656;2024-02-26T06:27:25;101052.22;;;0.72;nan
43814;BME280;29669;55.706;37.656;2024-02-26T06:29:53;101047.69;;;0.79;nan
43814;BME280;29669;55.706;37.656;2024-02-26T06:32:24;101039.66;;;0.86;nan
43814;BME280;29669;55.706;37.656;2024-02-26T06:34:51;101042.56;;;0.98;nan
43814;BME280;29669;55.706;37.656;2024-02-26T06:37:19;101047.22;;;1.07;nan
43814;BME280;29669;55.706;37.656;2024-02-26T06:39:47;101027.31;;;1.13;nan
43814;BME280;29669;55.706;37.656;2024-02-26T06:42:15;101051.66;;;1.03;nan
43814;BME280;29669;55.706;37.656;2024-02-26T06:44:42;101039.84;;;1.01;nan
43814;BME280;29669;55.706;37.656;2024-02-26T06:47:10;101042.28;;;1.04;nan
43814;BME280;29669;55.706;37.656;2024-02-26T06:49:39;101055.88;;;1.04;nan
43814;BME280;29669;55.706;37.656;2024-02-26T06:52:06;101053.34;;;1.04;nan
43814;BME280;29669;55.706;37.656;2024-02-26T06:54:34;101053.47;;;1.01;nan
43814;BME280;29669;55.706;37.656;2024-02-26T06:57:02;101057.06;;;0.97;nan
43814;BME280;29669;55.706;37.656;2024-02-26T06:59:30;101055.53;;;1.12;nan
43814;BME280;29669;55.706;37.656;2024-02-26T07:01:58;101052.25;;;1.27;nan
43814;BME280;29669;55.706;37.656;2024-02-26T07:04:26;101053.97;;;1.26;nan
43814;BME280;29669;55.706;37.656;2024-02-26T07:06:54;101050.38;;;1.30;nan
43814;BME280;29669;55.706;37.656;2024-02-26T07:09:21;101050.09;;;1.36;nan
43814;BME280;29669;55.706;37.656;2024-02-26T07:11:49;101046.16;;;1.46;nan
43814;BME280;29669;55.706;37.656;2024-02-26T07:14:17;101034.88;;;1.50;nan
43814;BME280;29669;55.706;37.656;2024-02-26T07:16:44;101036.31;;;1.56;nan
43814;BME280;29669;55.706;37.656;2024-02-26T07:19:12;101029.94;;;1.64;nan
43814;BME280;29669;55.706;37.656;2024-02-26T07:21:40;101034.72;;;1.70;nan
43814;BME280;29669;55.706;37.656;2024-02-26T07:24:08;101026.22;;;1.70;nan
43814;BME280;29669;55.706;37.656;2024-02-26T07:26:36;101029.59;;;1.70;nan
43814;BME280;29669;55.706;37.656;2024-02-26T07:29:03;101031.78;;;1.78;nan
43814;BME280;29669;55.706;37.656;2024-02-26T07:31:32;101025.31;;;1.71;nan
43814;BME280;29669;55.706;37.656;2024-02-26T07:33:59;101029.69;;;1.69;nan
43814;BME280;29669;55.706;37.656;2024-02-26T07:36:27;101034.59;;;1.73;nan
43814;BME280;29669;55.706;37.656;2024-02-26T07:38:55;101027.50;;;1.78;nan
43814;BME280;29669;55.706;37.656;2024-02-26T07:41:23;101037.66;;;1.80;nan
43814;BME280;29669;55.706;37.656;2024-02-26T07:43:51;101027.50;;;1.78;nan
43814;BME280;29669;55.706;37.656;2024-02-26T07:46:18;101035.84;;;1.82;nan
43814;BME280;29669;55.706;37.656;2024-02-26T07:48:46;101030.56;;;2.02;nan
43814;BME280;29669;55.706;37.656;2024-02-26T07:51:14;101034.06;;;2.17;nan
43814;BME280;29669;55.706;37.656;2024-02-26T07:53:42;101033.88;;;2.20;nan
43814;BME280;29669;55.706;37.656;2024-02-26T07:56:09;101028.72;;;2.37;nan
43814;BME280;29669;55.706;37.656;2024-02-26T07:58:37;101029.31;;;2.42;nan
43814;BME280;29669;55.706;37.656;2024-02-26T08:01:05;101034.19;;;2.46;nan
43814;BME280;29669;55.706;37.656;2024-02-26T08:03:33;101028.03;;;2.66;nan
43814;BME280;29669;55.706;37.656;2024-02-26T08:06:01;101032.06;;;2.70;nan
43814;BME280;29669;55.706;37.656;2024-02-26T08:08:28;101035.53;;;2.69;nan
43814;BME280;29669;55.706;37.656;2024-02-26T08:10:56;101034.63;;;2.70;nan
43814;BME280;29669;55.706;37.656;2024-02-26T08:13:24;101025.56;;;2.80;nan
43814;BME280;29669;55.706;37.656;2024-02-26T08:15:52;101031.66;;;2.77;nan
43814;BME280;29669;55.706;37.656;2024-02-26T08:18:20;101028.13;;;2.80;nan
43814;BME280;29669;55.706;37.656;2024-02-26T08:20:47;101027.63;;;2.89;nan
43814;BME280;29669;55.706;37.656;2024-02-26T08:23:16;101031.56;;;3.10;nan
43814;BME280;29669;55.706;37.656;2024-02-26T08:25:44;101031.78;;;3.21;nan
43814;BME280;29669;55.706;37.656;2024-02-26T08:28:12;101025.00;;;3.20;nan
43814;BME280;29669;55.706;37.656;2024-02-26T08:30:40;101017.38;;;3.19;nan
43814;BME280;29669;55.706;37.656;2024-02-26T08:33:08;101023.25;;;3.21;nan
43814;BME280;29669;55.706;37.656;2024-02-26T08:35:36;101023.16;;;3.22;nan
43814;BME280;29669;55.706;37.656;2024-02-26T08:38:04;101008.84;;;3.34;nan
43814;BME280;29669;55.706;37.656;2024-02-26T08:40:32;101015.53;;;3.36;nan
43814;BME280;29669;55.706;37.656;2024-02-26T08:42:59;101014.78;;;3.34;nan
43814;BME280;29669;55.706;37.656;2024-02-26T08:45:27;101010.00;;;3.28;nan
43814;BME280;29669;55.706;37.656;2024-02-26T08:47:56;101004.69;;;3.31;nan
43814;BME280;29669;55.706;37.656;2024-02-26T08:50:26;100995.00;;;3.36;nan
43814;BME280;29669;55.706;37.656;2024-02-26T08:52:54;100997.22;;;3.42;nan
43814;BME280;29669;55.706;37.656;2024-02-26T08:55:21;100998.03;;;3.43;nan
43814;BME280;29669;55.706;37.656;2024-02-26T08:57:49;100992.03;;;3.28;nan
43814;BME280;29669;55.706;37.656;2024-02-26T09:00:17;100981.97;;;3.25;nan
43814;BME280;29669;55.706;37.656;2024-02-26T09:02:48;101007.31;;;3.16;nan
43814;BME280;29669;55.706;37.656;2024-02-26T09:05:17;101000.28;;;3.04;nan
43814;BME280;29669;55.706;37.656;2024-02-26T09:07:44;101001.88;;;3.06;nan
43814;BME280;29669;55.706;37.656;2024-02-26T09:10:14;100999.69;;;3.14;nan
43814;BME280;29669;55.706;37.656;2024-02-26T09:12:43;101001.00;;;3.21;nan
43814;BME280;29669;55.706;37.656;2024-02-26T09:15:11;100999.56;;;3.31;nan
43814;BME280;29669;55.706;37.656;2024-02-26T09:17:39;100990.47;;;3.55;nan
43814;BME280;29669;55.706;37.656;2024-02-26T09:20:07;100991.50;;;3.67;nan
43814;BME280;29669;55.706;37.656;2024-02-26T09:22:36;100984.44;;;3.70;nan
43814;BME280;29669;55.706;37.656;2024-02-26T09:25:05;101000.31;;;3.63;nan
43814;BME280;29669;55.706;37.656;2024-02-26T09:27:33;101001.66;;;3.54;nan
43814;BME280;29669;55.706;37.656;2024-02-26T09:30:01;100991.47;;;3.53;nan
43814;BME280;29669;55.706;37.656;2024-02-26T09:32:30;100987.91;;;3.55;nan
43814;BME280;29669;55.706;37.656;2024-02-26T09:34:58;100992.66;;;3.47;nan
43814;BME280;29669;55.706;37.656;2024-02-26T09:37:26;100993.34;;;3.35;nan
43814;BME280;29669;55.706;37.656;2024-02-26T09:39:54;100983.06;;;3.21;nan
43814;BME280;29669;55.706;37.656;2024-02-26T09:42:25;100992.72;;;3.16;nan
43814;BME280;29669;55.706;37.656;2024-02-26T09:44:54;100994.44;;;3.31;nan
43814;BME280;29669;55.706;37.656;2024-02-26T09:47:26;100991.16;;;3.43;nan
43814;BME280;29669;55.706;37.656;2024-02-26T09:49:56;100988.50;;;3.45;nan
43814;BME280;29669;55.706;37.656;2024-02-26T09:52:25;100996.13;;;3.46;nan
43814;BME280;29669;55.706;37.656;2024-02-26T09:54:54;100998.28;;;3.54;nan
43814;BME280;29669;55.706;37.656;2024-02-26T09:57:22;100988.47;;;3.60;nan
43814;BME280;29669;55.706;37.656;2024-02-26T09:59:53;100991.13;;;3.59;nan
43814;BME280;29669;55.706;37.656;2024-02-26T10:02:22;100991.75;;;3.62;nan
43814;BME280;29669;55.706;37.656;2024-02-26T10:04:50;100984.16;;;3.61;nan
43814;BME280;29669;55.706;37.656;2024-02-26T10:07:19;100983.13;;;3.63;nan
43814;BME280;29669;55.706;37.656;2024-02-26T10:09:48;100984.81;;;3.64;nan
43814;BME280;29669;55.706;37.656;2024-02-26T10:12:16;100976.00;;;3.68;nan
43814;BME280;29669;55.706;37.656;2024-02-26T10:14:45;100982.03;;;3.67;nan
43814;BME280;29669;55.706;37.656;2024-02-26T10:17:12;100984.91;;;3.77;nan
43814;BME280;29669;55.706;37.656;2024-02-26T10:19:40;100986.84;;;3.88;nan
43814;BME280;29669;55.706;37.656;2024-02-26T10:22:08;100973.47;;;3.97;nan
43814;BME280;29669;55.706;37.656;2024-02-26T10:24:36;100986.09;;;4.00;nan
43814;BME280;29669;55.706;37.656;2024-02-26T10:27:04;100979.59;;;4.08;nan
43814;BME280;29669;55.706;37.656;2024-02-26T10:29:32;100985.19;;;4.15;nan
43814;BME280;29669;55.706;37.656;2024-02-26T10:32:01;100985.38;;;4.26;nan
43814;BME280;29669;55.706;37.656;2024-02-26T10:34:29;100974.09;;;4.14;nan
43814;BME280;29669;55.706;37.656;2024-02-26T10:36:56;100976.09;;;4.09;nan
43814;BME280;29669;55.706;37.656;2024-02-26T10:39:24;100969.03;;;4.13;nan
43814;BME280;29669;55.706;37.656;2024-02-26T10:41:52;100968.97;;;4.14;nan
43814;BME280;29669;55.706;37.656;2024-02-26T10:44:20;100970.88;;;4.25;nan
43814;BME280;29669;55.706;37.656;2024-02-26T10:46:48;100975.53;;;4.32;nan
43814;BME280;29669;55.706;37.656;2024-02-26T10:49:18;100975.13;;;4.26;nan
43814;BME280;29669;55.706;37.656;2024-02-26T10:51:55;100980.06;;;4.15;nan
43814;BME280;29669;55.706;37.656;2024-02-26T10:54:29;100968.69;;;4.05;nan
43814;BME280;29669;55.706;37.656;2024-02-26T10:56:59;100954.19;;;3.90;nan
43814;BME280;29669;55.706;37.656;2024-02-26T10:59:27;100956.19;;;3.84;nan
43814;BME280;29669;55.706;37.656;2024-02-26T11:01:55;100947.59;;;3.86;nan
43814;BME280;29669;55.706;37.656;2024-02-26T11:04:25;100966.28;;;4.02;nan
43814;BME280;29669;55.706;37.656;2024-02-26T11:06:57;100960.16;;;4.18;nan
43814;BME280;29669;55.706;37.656;2024-02-26T11:09:26;100950.31;;;4.25;nan
43814;BME280;29669;55.706;37.656;2024-02-26T11:11:56;100943.34;;;4.27;nan
43814;BME280;29669;55.706;37.656;2024-02-26T11:14:25;100941.03;;;4.22;nan
43814;BME280;29669;55.706;37.656;2024-02-26T11:16:55;100943.44;;;4.25;nan
43814;BME280;29669;55.706;37.656;2024-02-26T11:19:24;100944.44;;;4.37;nan
43814;BME280;29669;55.706;37.656;2024-02-26T11:21:52;100948.78;;;4.49;nan
43814;BME280;29669;55.706;37.656;2024-02-26T11:24:20;100947.09;;;4.62;nan
43814;BME280;29669;55.706;37.656;2024-02-26T11:26:52;100948.28;;;4.70;nan
43814;BME280;29669;55.706;37.656;2024-02-26T11:29:32;100945.81;;;4.69;nan
43814;BME280;29669;55.706;37.656;2024-02-26T11:32:00;100940.81;;;4.53;nan
43814;BME280;29669;55.706;37.656;2024-02-26T11:34:29;100944.03;;;4.43;nan
43814;BME280;29669;55.706;37.656;2024-02-26T11:36:57;100945.16;;;4.39;nan
43814;BME280;29669;55.706;37.656;2024-02-26T11:39:25;100940.75;;;4.41;nan
43814;BME280;29669;55.706;37.656;2024-02-26T11:41:54;100935.25;;;4.33;nan
43814;BME280;29669;55.706;37.656;2024-02-26T11:44:31;100940.41;;;4.33;nan
43814;BME280;29669;55.706;37.656;2024-02-26T11:46:58;100940.28;;;4.34;nan
43814;BME280;29669;55.706;37.656;2024-02-26T11:51:56;100931.91;;;4.45;nan
43814;BME280;29669;55.706;37.656;2024-02-26T11:57:29;100928.94;;;4.65;nan
43814;BME280;29669;55.706;37.656;2024-02-26T12:02:49;100919.94;;;4.85;nan
43814;BME280;29669;55.706;37.656;2024-02-26T12:05:21;100915.50;;;4.87;nan
43814;BME280;29669;55.706;37.656;2024-02-26T12:07:59;100919.53;;;4.91;nan
43814;BME280;29669;55.706;37.656;2024-02-26T12:10:31;100915.75;;;4.69;nan
43814;BME280;29669;55.706;37.656;2024-02-26T12:13:10;100913.50;;;4.65;nan
43814;BME280;29669;55.706;37.656;2024-02-26T12:15:55;100915.34;;;4.63;nan
43814;BME280;29669;55.706;37.656;2024-02-26T12:18:24;100910.53;;;4.44;nan
43814;BME280;29669;55.706;37.656;2024-02-26T12:21:02;100901.38;;;4.26;nan
43814;BME280;29669;55.706;37.656;2024-02-26T12:23:30;100908.28;;;4.26;nan
43814;BME280;29669;55.706;37.656;2024-02-26T12:26:02;100916.19;;;4.23;nan
43814;BME280;29669;55.706;37.656;2024-02-26T12:28:33;100912.16;;;4.19;nan
43814;BME280;29669;55.706;37.656;2024-02-26T12:31:00;100918.47;;;4.13;nan
43814;BME280;29669;55.706;37.656;2024-02-26T12:33:30;100914.28;;;4.12;nan
43814;BME280;29669;55.706;37.656;2024-02-26T12:35:58;100911.78;;;4.11;nan
43814;BME280;29669;55.706;37.656;2024-02-26T12:38:27;100919.69;;;4.08;nan
43814;BME280;29669;55.706;37.656;2024-02-26T12:40:55;100911.63;;;4.00;nan
43814;BME280;29669;55.706;37.656;2024-02-26T12:43:23;100919.53;;;3.97;nan
43814;BME280;29669;55.706;37.656;2024-02-26T12:45:50;100916.47;;;3.90;nan
43814;BME280;29669;55.706;37.656;2024-02-26T12:48:19;100922.81;;;3.99;nan
43814;BME280;29669;55.706;37.656;2024-02-26T12:50:48;100913.66;;;3.95;nan
43814;BME280;29669;55.706;37.656;2024-02-26T12:53:16;100914.66;;;3.92;nan
43814;BME280;29669;55.706;37.656;2024-02-26T12:55:44;100916.94;;;3.97;nan
43814;BME280;29669;55.706;37.656;2024-02-26T12:58:12;100920.06;;;4.02;nan
43814;BME280;29669;55.706;37.656;2024-02-26T13:00:41;100918.53;;;3.99;nan
43814;BME280;29669;55.706;37.656;2024-02-26T13:03:09;100893.84;;;3.97;nan
43814;BME280;29669;55.706;37.656;2024-02-26T13:05:37;100909.72;;;3.89;nan
43814;BME280;29669;55.706;37.656;2024-02-26T13:08:05;100908.34;;;3.83;nan
43814;BME280;29669;55.706;37.656;2024-02-26T13:10:36;100908.50;;;3.80;nan
43814;BME280;29669;55.706;37.656;2024-02-26T13:13:04;100916.22;;;3.80;nan
43814;BME280;29669;55.706;37.656;2024-02-26T13:15:32;100909.53;;;3.78;nan
43814;BME280;29669;55.706;37.656;2024-02-26T13:18:09;100902.72;;;3.77;nan
43814;BME280;29669;55.706;37.656;2024-02-26T13:20:38;100910.72;;;3.72;nan
43814;BME280;29669;55.706;37.656;2024-02-26T13:23:11;100908.91;;;3.74;nan
43814;BME280;29669;55.706;37.656;2024-02-26T13:25:39;100912.84;;;3.80;nan